createdAt,value
2023-04-20T00:00:25.459Z,7.50
2023-04-20T00:02:53.270Z,5.20
2023-04-20T00:05:19.937Z,5.20
2023-04-20T00:07:48.484Z,5.20
2023-04-20T00:10:15.083Z,5.20
2023-04-20T00:12:42.126Z,5.10
2023-04-20T00:15:09.053Z,5.10
2023-04-20T00:17:38.425Z,5.00
2023-04-20T00:22:32.072Z,5.00
2023-04-20T00:29:52.706Z,5.10
2023-04-20T00:39:41.283Z,5.10
2023-04-20T00:42:08.888Z,5.00
2023-04-20T00:44:35.559Z,4.90
2023-04-20T00:47:02.155Z,4.90
2023-04-20T00:49:30.118Z,4.80
2023-04-20T00:51:57.845Z,4.80
2023-04-20T00:54:24.776Z,4.70
2023-04-20T00:59:18.496Z,4.70
2023-04-20T01:01:45.293Z,4.70
2023-04-20T01:04:12.119Z,4.70
2023-04-20T01:06:38.830Z,4.70
2023-04-20T01:09:05.844Z,4.70
2023-04-20T01:11:32.404Z,4.60
2023-04-20T01:16:28.177Z,4.70
2023-04-20T01:26:17.630Z,4.60
2023-04-20T01:28:44.491Z,4.50
2023-04-20T02:25:15.693Z,3.60
2023-04-20T02:52:14.546Z,3.30
2023-04-20T03:33:57.125Z,3.80
2023-04-20T03:58:28.093Z,3.90
2023-04-20T04:01:02.405Z,3.80
2023-04-20T04:08:23.173Z,3.80
2023-04-20T04:10:49.978Z,3.70
2023-04-20T04:13:16.615Z,3.70
2023-04-20T04:18:10.379Z,3.80
2023-04-20T04:23:04.179Z,3.70
2023-04-20T04:27:58.015Z,3.70
2023-04-20T04:32:52.126Z,3.80
2023-04-20T04:37:46.180Z,3.80
2023-04-20T04:40:12.918Z,3.80
2023-04-20T04:42:39.554Z,3.70
2023-04-20T04:45:06.421Z,3.70
2023-04-20T04:47:36.048Z,3.70
2023-04-20T04:54:57.681Z,3.80
2023-04-20T04:57:24.257Z,3.80
2023-04-20T05:51:28.953Z,7.10
2023-04-20T05:56:22.641Z,7.50
2023-04-20T05:58:49.245Z,7.40
2023-04-20T06:01:15.771Z,7.70
2023-04-20T06:03:42.624Z,7.90
2023-04-20T06:06:09.335Z,8.20
2023-04-20T06:08:36.383Z,8.60
2023-04-20T06:11:02.960Z,9.20
2023-04-20T06:13:29.534Z,9.40
2023-04-20T06:15:56.205Z,9.70
2023-04-20T06:18:23.039Z,9.90
2023-04-20T06:20:49.668Z,10.20
2023-04-20T06:23:16.256Z,10.20
2023-04-20T06:25:42.904Z,10.20
2023-04-20T06:28:09.522Z,10.20
2023-04-20T06:30:36.251Z,10.50
2023-04-20T06:33:03.203Z,10.50
2023-04-20T06:35:29.809Z,10.60
2023-04-20T06:37:57.637Z,11.00
2023-04-20T06:40:27.405Z,11.20
2023-04-20T06:42:54.264Z,11.60
2023-04-20T06:45:21.160Z,11.90
2023-04-20T06:47:47.828Z,12.60
2023-04-20T06:50:14.453Z,13.30
2023-04-20T06:52:41.117Z,13.00
2023-04-20T06:55:08.337Z,14.00
2023-04-20T06:57:35.353Z,13.00
2023-04-20T07:00:01.923Z,12.40
2023-04-20T07:02:28.745Z,12.30
2023-04-20T07:05:00.555Z,12.70
2023-04-20T07:07:27.309Z,13.00
2023-04-20T07:09:53.870Z,13.80
2023-04-20T07:12:20.452Z,14.40
2023-04-20T07:14:47.073Z,15.00
2023-04-20T07:19:41.205Z,16.10
2023-04-20T07:22:07.835Z,16.70
2023-04-20T07:24:34.372Z,16.80
2023-04-20T07:27:01.449Z,16.70
2023-04-20T07:29:28.028Z,16.50
2023-04-20T07:31:54.593Z,15.70
2023-04-20T07:34:22.051Z,15.30
2023-04-20T07:36:48.623Z,15.30
2023-04-20T07:39:16.170Z,15.10
2023-04-20T07:41:43.744Z,15.20
2023-04-20T07:44:11.159Z,14.90
2023-04-20T07:46:37.699Z,14.90
2023-04-20T07:49:04.362Z,14.70
2023-04-20T07:51:32.339Z,15.00
2023-04-20T07:53:59.124Z,15.00
2023-04-20T07:56:26.075Z,15.10
2023-04-20T07:58:52.752Z,15.30
2023-04-20T08:01:23.430Z,15.40
2023-04-20T08:03:50.170Z,15.50
2023-04-20T08:06:17.290Z,15.50
2023-04-20T08:08:43.946Z,15.70
2023-04-20T08:11:10.641Z,15.60
2023-04-20T08:13:37.438Z,16.00
2023-04-20T08:16:04.171Z,15.80
2023-04-20T08:18:31.028Z,16.00
2023-04-20T08:20:57.580Z,16.10
2023-04-20T08:23:28.039Z,16.40
2023-04-20T08:25:54.957Z,17.00
2023-04-20T08:28:32.927Z,17.10
2023-04-20T08:31:01.116Z,17.40
2023-04-20T08:33:27.718Z,17.80
2023-04-20T08:35:54.435Z,18.30
2023-04-20T08:38:32.811Z,18.80
2023-04-20T08:41:00.240Z,18.20
2023-04-20T08:43:26.839Z,18.10
2023-04-20T08:45:57.461Z,17.90
2023-04-20T08:48:25.031Z,17.70
2023-04-20T08:50:51.625Z,17.00
2023-04-20T08:53:18.210Z,16.90
2023-04-20T08:55:44.935Z,16.90
2023-04-20T08:58:11.535Z,16.40
2023-04-20T09:00:48.139Z,16.50
2023-04-20T09:03:15.013Z,16.50
2023-04-20T09:05:43.867Z,16.40
2023-04-20T09:08:10.559Z,16.30
2023-04-20T09:10:41.621Z,15.90
2023-04-20T09:13:08.592Z,15.90
2023-04-20T09:27:59.886Z,15.00
2023-04-20T09:47:37.675Z,15.80
2023-04-20T09:50:19.448Z,15.50
2023-04-20T10:02:37.860Z,15.10
2023-04-20T10:05:04.831Z,15.10
2023-04-20T10:10:09.180Z,14.80
2023-04-20T10:27:20.658Z,13.60
2023-04-20T10:32:27.362Z,13.30
2023-04-20T10:35:07.545Z,13.30
2023-04-20T10:37:34.593Z,13.30
2023-04-20T10:40:01.458Z,13.00
2023-04-20T10:42:29.654Z,13.00
2023-04-20T10:44:56.420Z,13.20
2023-04-20T10:47:26.980Z,13.20
2023-04-20T10:49:53.704Z,13.20
2023-04-20T10:52:34.343Z,12.80
2023-04-20T10:55:00.941Z,12.60
2023-04-20T10:59:54.469Z,12.20
2023-04-20T11:02:21.279Z,12.20
2023-04-20T11:04:48.353Z,11.90
2023-04-20T11:07:14.919Z,12.00
2023-04-20T11:09:42.997Z,12.10
2023-04-20T11:12:14.622Z,12.10
2023-04-20T11:14:51.559Z,12.30
2023-04-20T11:17:18.351Z,12.60
2023-04-20T11:19:44.926Z,13.00
2023-04-20T11:22:20.497Z,13.10
2023-04-20T11:24:47.033Z,13.20
2023-04-20T11:27:23.831Z,13.20
2023-04-20T11:29:56.233Z,13.40
2023-04-20T11:32:23.051Z,13.50
2023-04-20T11:35:06.074Z,13.50
2023-04-20T11:37:34.472Z,13.70
2023-04-20T11:40:09.603Z,13.50
2023-04-20T11:42:36.995Z,13.50
2023-04-20T11:45:04.181Z,13.20
2023-04-20T11:47:30.946Z,12.70
2023-04-20T11:49:57.473Z,12.70
2023-04-20T11:52:24.033Z,12.70
2023-04-20T11:54:51.014Z,12.50
2023-04-20T11:57:17.634Z,12.40
2023-04-20T11:59:47.958Z,12.40
2023-04-20T12:02:15.064Z,12.30
2023-04-20T12:04:42.001Z,12.20
2023-04-20T12:07:08.907Z,12.20
2023-04-20T12:09:37.660Z,12.10
2023-04-20T12:12:05.428Z,11.90
2023-04-20T12:14:34.965Z,13.70
2023-04-20T12:17:01.952Z,11.70
2023-04-20T12:19:28.563Z,11.70
2023-04-20T12:21:55.675Z,11.80
2023-04-20T12:24:22.835Z,11.80
2023-04-20T12:26:49.402Z,11.80
2023-04-20T12:29:16.661Z,13.60
2023-04-20T12:31:43.536Z,12.00
2023-04-20T12:34:10.681Z,11.90
2023-04-20T12:36:37.344Z,11.90
2023-04-20T12:39:04.240Z,11.70
2023-04-20T12:41:31.081Z,11.50
2023-04-20T12:43:57.631Z,11.40
2023-04-20T12:46:25.375Z,11.20
2023-04-20T12:48:52.182Z,11.20
2023-04-20T12:51:18.791Z,11.30
2023-04-20T12:53:45.394Z,11.20
2023-04-20T12:56:11.967Z,11.30
2023-04-20T12:58:38.883Z,11.30
2023-04-20T13:01:05.766Z,11.00
2023-04-20T13:03:32.779Z,11.00
2023-04-20T13:05:59.965Z,10.90
2023-04-20T13:08:26.829Z,11.00
2023-04-20T13:13:20.486Z,11.10
2023-04-20T13:15:47.172Z,11.00
2023-04-20T13:18:15.395Z,11.00
2023-04-20T13:20:42.094Z,11.00
2023-04-20T13:23:08.708Z,13.20
2023-04-20T13:25:35.314Z,10.90
2023-04-20T13:28:03.024Z,11.00
2023-04-20T13:30:29.680Z,11.10
2023-04-20T13:32:56.502Z,11.10
2023-04-20T13:35:23.585Z,11.20
2023-04-20T13:37:50.670Z,11.50
2023-04-20T13:40:17.433Z,11.50
2023-04-20T13:42:44.063Z,11.50
2023-04-20T13:45:10.831Z,11.50
2023-04-20T13:47:38.832Z,11.60
2023-04-20T13:50:06.654Z,11.50
2023-04-20T13:52:33.278Z,11.50
2023-04-20T13:54:59.796Z,11.50
2023-04-20T13:57:26.396Z,11.50
2023-04-20T13:59:53.186Z,12.50
2023-04-20T14:02:19.946Z,12.40
2023-04-20T14:04:46.572Z,12.00
2023-04-20T14:07:13.190Z,11.90
2023-04-20T14:09:39.778Z,11.70
2023-04-20T14:12:06.422Z,11.50
2023-04-20T14:14:33.126Z,11.40
2023-04-20T14:16:59.705Z,11.60
2023-04-20T14:19:26.313Z,12.00
2023-04-20T14:21:52.959Z,12.30
2023-04-20T14:24:19.729Z,12.50
2023-04-20T14:26:46.645Z,12.80
2023-04-20T14:29:13.463Z,13.30
2023-04-20T14:31:40.060Z,13.20
2023-04-20T14:34:07.105Z,13.40
2023-04-20T14:36:33.724Z,13.50
2023-04-20T14:39:00.314Z,13.70
2023-04-20T14:41:27.174Z,13.80
2023-04-20T14:43:53.842Z,14.40
2023-04-20T14:46:20.801Z,14.60
2023-04-20T14:48:48.232Z,15.10
2023-04-20T14:51:16.155Z,14.90
2023-04-20T14:53:42.839Z,15.00
2023-04-20T14:58:37.435Z,14.90
2023-04-20T15:03:31.341Z,13.50
2023-04-20T15:08:25.268Z,13.80
2023-04-20T15:13:26.383Z,13.80
2023-04-20T15:35:34.275Z,12.70
2023-04-20T15:45:25.383Z,12.10
2023-04-20T15:50:19.113Z,12.00
2023-04-20T15:52:49.415Z,12.00
2023-04-20T15:55:16.616Z,11.90
2023-04-20T15:57:44.477Z,11.90
2023-04-20T16:17:24.971Z,12.00
2023-04-20T16:19:52.849Z,11.90
2023-04-20T16:22:19.577Z,11.90
2023-04-20T16:24:46.226Z,11.80
2023-04-20T16:27:12.798Z,11.70
2023-04-20T16:32:06.602Z,11.70
2023-04-20T16:34:33.191Z,11.70
2023-04-20T16:36:59.792Z,11.70
2023-04-20T16:39:26.342Z,11.70
2023-04-20T17:01:33.062Z,12.00
2023-04-20T17:06:27.451Z,12.10
2023-04-20T17:08:57.434Z,12.00
2023-04-20T17:11:24.094Z,11.90
2023-04-20T17:13:50.708Z,11.90
2023-04-20T17:16:17.344Z,11.80
2023-04-20T17:18:43.924Z,11.80
2023-04-20T17:21:10.508Z,11.70
2023-04-20T17:23:37.030Z,11.70
2023-04-20T17:26:04.502Z,11.60
2023-04-20T17:28:31.774Z,11.60
2023-04-20T17:30:58.333Z,11.50
2023-04-20T17:35:51.985Z,11.50
2023-04-20T17:38:18.684Z,11.40
2023-04-20T17:40:45.436Z,11.30
2023-04-20T17:43:12.544Z,11.30
2023-04-20T17:50:33.649Z,11.40
2023-04-20T17:55:35.333Z,11.40
2023-04-20T17:58:02.018Z,11.40
2023-04-20T18:07:49.732Z,11.20
2023-04-20T18:10:16.317Z,11.10
2023-04-20T18:12:43.510Z,11.10
2023-04-20T18:15:10.381Z,11.10
2023-04-20T18:17:37.125Z,11.10
2023-04-20T18:20:07.591Z,11.00
2023-04-20T18:22:35.650Z,11.00
2023-04-20T18:37:21.308Z,11.10
2023-04-20T18:42:14.905Z,11.20
2023-04-20T18:44:41.553Z,11.00
2023-04-20T18:47:08.224Z,11.10
2023-04-20T19:01:52.360Z,11.10
2023-04-20T19:04:19.365Z,11.10
2023-04-20T19:06:46.279Z,11.10
2023-04-20T19:11:39.895Z,11.00
2023-04-20T19:14:06.473Z,11.10
2023-04-20T19:19:01.371Z,11.10
2023-04-20T19:21:28.464Z,11.10
2023-04-20T19:23:55.288Z,11.10
2023-04-20T19:26:21.890Z,11.20
2023-04-20T19:28:48.430Z,11.10
2023-04-20T19:31:16.010Z,11.10
2023-04-20T19:33:42.785Z,11.10
2023-04-20T19:36:10.032Z,11.10
2023-04-20T19:38:38.663Z,11.10
2023-04-20T19:43:33.101Z,11.10
2023-04-20T19:45:59.737Z,11.50
2023-04-20T19:48:26.779Z,11.10
2023-04-20T19:50:54.007Z,11.10
2023-04-20T19:53:21.419Z,11.10
2023-04-20T19:55:48.023Z,11.00
2023-04-20T19:58:14.692Z,11.10
2023-04-20T20:00:41.292Z,11.00
2023-04-20T20:03:08.423Z,11.10
2023-04-20T20:08:03.296Z,11.00
2023-04-20T20:10:29.877Z,11.00
2023-04-20T20:12:56.461Z,11.00
2023-04-20T20:15:23.153Z,10.90
2023-04-20T20:17:49.804Z,10.90
2023-04-20T20:20:16.393Z,10.90
2023-04-20T20:22:48.198Z,10.80
2023-04-20T20:25:15.482Z,10.80
2023-04-20T20:37:34.547Z,10.70
2023-04-20T20:40:06.679Z,10.60
2023-04-20T20:42:33.649Z,10.60
2023-04-20T20:45:00.809Z,10.50
2023-04-20T20:47:27.463Z,10.40
2023-04-20T20:49:54.254Z,10.40
2023-04-20T20:52:21.135Z,10.40
2023-04-20T20:54:47.824Z,10.40
2023-04-20T20:59:41.478Z,10.30
2023-04-20T21:02:08.151Z,10.30
2023-04-20T21:04:34.735Z,10.40
2023-04-20T21:07:01.420Z,10.30
2023-04-20T21:09:28.073Z,10.30
2023-04-20T21:11:56.480Z,10.40
2023-04-20T21:14:23.471Z,10.40
2023-04-20T21:19:17.552Z,10.30
2023-04-20T21:21:44.275Z,10.30
2023-04-20T21:24:10.971Z,10.30
2023-04-20T21:26:38.339Z,10.30
2023-04-20T21:29:05.433Z,10.20
2023-04-20T21:31:34.183Z,10.30
2023-04-20T21:34:00.776Z,10.30
2023-04-20T21:38:54.565Z,10.40
2023-04-20T21:41:23.571Z,10.50
2023-04-20T21:43:51.713Z,10.50
2023-04-20T21:46:18.493Z,10.50
2023-04-20T21:48:45.107Z,10.50
2023-04-20T21:51:15.761Z,10.40
2023-04-20T21:53:42.392Z,10.40
2023-04-20T21:56:08.958Z,10.40
2023-04-20T21:58:35.749Z,10.40
2023-04-20T22:01:02.987Z,10.40
2023-04-20T22:03:31.314Z,10.40
2023-04-20T22:05:59.026Z,10.40
2023-04-20T22:08:25.899Z,10.40
2023-04-20T22:10:52.517Z,10.30
2023-04-20T22:13:19.694Z,10.30
2023-04-20T22:20:43.637Z,10.40
2023-04-20T22:23:10.250Z,10.30
2023-04-20T22:28:04.089Z,10.40
2023-04-20T22:30:30.734Z,10.30
2023-04-20T22:32:57.324Z,10.30
2023-04-20T22:40:18.494Z,10.30
2023-04-20T22:42:45.166Z,10.30
2023-04-20T22:45:11.813Z,10.30
2023-04-20T22:47:38.922Z,10.20
2023-04-20T22:50:06.054Z,10.20
2023-04-20T22:52:32.603Z,10.20
2023-04-20T22:54:59.871Z,10.20
2023-04-20T22:57:26.452Z,10.20
2023-04-20T22:59:53.058Z,10.20
2023-04-20T23:02:19.716Z,10.20
2023-04-20T23:04:46.663Z,10.20
2023-04-20T23:07:13.617Z,10.20
2023-04-20T23:09:42.080Z,10.20
2023-04-20T23:12:12.200Z,10.10
2023-04-20T23:14:39.229Z,10.10
2023-04-20T23:17:06.395Z,10.10
2023-04-20T23:19:33.000Z,10.10
2023-04-20T23:21:59.989Z,10.20
2023-04-20T23:24:26.543Z,10.20
2023-04-20T23:26:53.150Z,10.20
2023-04-20T23:29:19.927Z,10.20
2023-04-20T23:34:14.849Z,10.10
2023-04-20T23:36:41.428Z,10.10
2023-04-20T23:39:08.144Z,10.10
2023-04-20T23:41:34.713Z,10.20
2023-04-20T23:44:01.413Z,10.90
2023-04-20T23:46:28.323Z,10.10
2023-04-20T23:48:55.427Z,10.20
2023-04-20T23:51:22.066Z,10.10
2023-04-20T23:53:48.643Z,10.10
2023-04-20T23:56:15.212Z,10.00
2023-04-20T23:58:41.804Z,10.10
